createdAt,value
2022-07-27T00:01:03.453Z,99838.09
2022-07-27T00:03:51.611Z,99843.59
2022-07-27T00:06:39.794Z,99848.41
2022-07-27T00:09:27.820Z,99847.69
2022-07-27T00:12:15.888Z,99850.53
2022-07-27T00:15:05.796Z,99848.19
2022-07-27T00:17:53.834Z,99842.41
2022-07-27T00:20:42.295Z,99848.72
2022-07-27T00:23:30.311Z,99848.88
2022-07-27T00:26:18.355Z,99853.34
2022-07-27T00:29:06.350Z,99843.47
2022-07-27T00:31:55.755Z,99839.19
2022-07-27T00:34:43.785Z,99847.97
2022-07-27T00:37:31.768Z,99861.50
2022-07-27T00:40:19.939Z,99868.69
2022-07-27T00:43:07.955Z,99859.53
2022-07-27T00:45:56.012Z,99864.91
2022-07-27T00:48:45.499Z,99870.75
2022-07-27T00:51:33.709Z,99859.91
2022-07-27T00:54:22.903Z,99858.69
2022-07-27T00:57:12.094Z,99855.09
2022-07-27T01:00:00.936Z,99859.78
2022-07-27T01:02:49.050Z,99862.88
2022-07-27T01:05:43.394Z,99854.19
2022-07-27T01:08:32.377Z,99868.84
2022-07-27T01:11:20.664Z,99854.94
2022-07-27T01:14:08.921Z,99841.63
2022-07-27T01:16:56.879Z,99861.28
2022-07-27T01:19:45.789Z,99856.53
2022-07-27T01:22:35.441Z,99863.88
2022-07-27T01:25:23.614Z,99863.03
2022-07-27T01:28:11.602Z,99861.41
2022-07-27T01:30:59.591Z,99859.28
2022-07-27T01:33:47.713Z,99854.84
2022-07-27T01:36:35.769Z,99854.84
2022-07-27T01:39:25.106Z,99862.34
2022-07-27T01:42:13.115Z,99858.78
2022-07-27T01:45:01.129Z,99842.66
2022-07-27T01:47:49.513Z,99825.25
2022-07-27T01:50:37.807Z,99845.16
2022-07-27T01:53:26.054Z,99844.31
2022-07-27T01:56:15.429Z,99843.53
2022-07-27T01:59:03.439Z,99843.03
2022-07-27T02:01:51.570Z,99852.59
2022-07-27T02:04:39.607Z,99843.81
2022-07-27T02:07:27.656Z,99850.53
2022-07-27T02:10:15.651Z,99851.66
2022-07-27T02:13:15.314Z,99843.66
2022-07-27T02:16:17.185Z,99844.38
2022-07-27T02:19:06.250Z,99839.59
2022-07-27T02:21:56.838Z,99831.72
2022-07-27T02:24:44.991Z,99827.19
2022-07-27T02:27:33.172Z,99840.13
2022-07-27T02:30:22.582Z,99842.13
2022-07-27T02:33:10.703Z,99840.06
2022-07-27T02:35:59.654Z,99840.31
2022-07-27T02:38:47.736Z,99841.84
2022-07-27T02:41:35.663Z,99834.47
2022-07-27T02:44:23.609Z,99833.25
2022-07-27T02:47:12.971Z,99840.03
2022-07-27T02:50:02.137Z,99836.41
2022-07-27T02:52:50.120Z,99835.88
2022-07-27T02:55:38.149Z,99844.97
2022-07-27T02:58:26.095Z,99833.03
2022-07-27T03:01:14.089Z,99829.75
2022-07-27T03:04:03.478Z,99828.25
2022-07-27T03:06:51.605Z,99826.97
2022-07-27T03:09:39.624Z,99835.38
2022-07-27T03:12:27.581Z,99830.31
2022-07-27T03:15:15.706Z,99826.88
2022-07-27T03:18:04.052Z,99848.66
2022-07-27T03:20:53.466Z,99855.34
2022-07-27T03:23:41.543Z,99842.22
2022-07-27T03:26:30.490Z,99837.00
2022-07-27T03:29:18.498Z,99844.22
2022-07-27T03:32:07.233Z,99838.66
2022-07-27T03:34:55.201Z,99842.81
2022-07-27T03:37:44.580Z,99836.34
2022-07-27T03:40:32.847Z,99837.97
2022-07-27T03:43:21.028Z,99838.34
2022-07-27T03:46:09.103Z,99838.34
2022-07-27T03:48:57.581Z,99840.66
2022-07-27T03:51:45.624Z,99847.03
2022-07-27T03:54:34.965Z,99852.25
2022-07-27T03:57:22.980Z,99847.53
2022-07-27T04:00:12.425Z,99852.25
2022-07-27T04:03:00.496Z,99851.78
2022-07-27T04:05:48.612Z,99849.47
2022-07-27T04:08:36.642Z,99856.94
2022-07-27T04:11:29.101Z,99847.03
2022-07-27T04:14:17.866Z,99861.78
2022-07-27T04:17:06.116Z,99862.84
2022-07-27T04:19:54.231Z,99865.22
2022-07-27T04:22:42.345Z,99858.06
2022-07-27T04:25:30.561Z,99858.84
2022-07-27T04:28:19.977Z,99856.34
2022-07-27T04:31:08.284Z,99854.34
2022-07-27T04:33:56.574Z,99867.41
2022-07-27T04:36:44.900Z,99869.84
2022-07-27T04:39:32.826Z,99863.50
2022-07-27T04:42:20.782Z,99861.50
2022-07-27T04:45:11.045Z,99858.91
2022-07-27T04:48:00.738Z,99861.94
2022-07-27T04:50:48.756Z,99868.94
2022-07-27T04:53:37.512Z,99866.50
2022-07-27T04:56:42.060Z,99874.75
2022-07-27T04:59:30.054Z,99873.63
2022-07-27T05:02:19.447Z,99871.13
2022-07-27T05:05:07.876Z,99868.59
2022-07-27T05:07:55.927Z,99870.00
2022-07-27T05:10:43.932Z,99876.03
2022-07-27T05:13:32.033Z,99885.78
2022-07-27T05:16:21.351Z,99895.28
2022-07-27T05:19:12.936Z,99906.19
2022-07-27T05:22:01.390Z,99887.63
2022-07-27T05:24:49.398Z,99915.34
2022-07-27T05:27:53.708Z,99909.53
2022-07-27T05:30:42.771Z,99906.47
2022-07-27T05:33:30.783Z,99917.84
2022-07-27T05:36:20.081Z,99912.63
2022-07-27T05:39:11.795Z,99919.53
2022-07-27T05:42:02.021Z,99913.25
2022-07-27T05:44:56.075Z,99918.03
2022-07-27T05:47:44.184Z,99918.63
2022-07-27T05:50:32.212Z,99924.38
2022-07-27T05:53:21.603Z,99928.25
2022-07-27T05:56:09.971Z,99922.69
2022-07-27T05:58:58.058Z,99927.41
2022-07-27T06:01:46.108Z,99922.09
2022-07-27T06:04:34.124Z,99926.97
2022-07-27T06:07:39.705Z,99922.72
2022-07-27T06:10:30.985Z,99925.41
2022-07-27T06:13:19.011Z,99924.50
2022-07-27T06:16:07.491Z,99925.03
2022-07-27T06:18:55.448Z,99931.50
2022-07-27T06:21:43.387Z,99929.47
2022-07-27T06:24:31.379Z,99935.06
2022-07-27T06:27:20.804Z,99938.13
2022-07-27T06:30:10.207Z,99940.25
2022-07-27T06:32:59.087Z,99933.22
2022-07-27T06:35:47.698Z,99932.44
2022-07-27T06:38:36.172Z,99937.13
2022-07-27T06:41:24.152Z,99930.44
2022-07-27T06:44:13.580Z,99936.75
2022-07-27T06:47:01.605Z,99934.56
2022-07-27T06:49:49.820Z,99948.63
2022-07-27T06:52:37.836Z,99944.78
2022-07-27T06:55:25.899Z,99941.69
2022-07-27T06:58:13.943Z,99941.88
2022-07-27T07:01:03.713Z,99949.59
2022-07-27T07:03:51.909Z,99947.88
2022-07-27T07:06:40.044Z,99949.09
2022-07-27T07:09:28.805Z,99943.09
2022-07-27T07:12:18.183Z,99947.63
2022-07-27T07:15:07.916Z,99949.50
2022-07-27T07:17:57.327Z,99946.75
2022-07-27T07:20:45.384Z,99956.69
2022-07-27T07:23:33.546Z,99950.53
2022-07-27T07:26:21.569Z,99940.69
2022-07-27T07:29:10.361Z,99970.31
2022-07-27T07:31:58.520Z,99967.31
2022-07-27T07:34:47.862Z,99967.88
2022-07-27T07:37:35.994Z,99970.91
2022-07-27T07:43:31.982Z,99975.00
2022-07-27T07:46:20.144Z,99972.91
2022-07-27T07:49:08.665Z,99959.25
2022-07-27T07:51:58.925Z,99961.72
2022-07-27T07:54:47.028Z,99963.19
2022-07-27T07:57:35.108Z,99952.78
2022-07-27T08:00:24.136Z,99963.75
2022-07-27T08:03:12.224Z,99967.84
2022-07-27T08:06:00.276Z,99967.00
2022-07-27T08:08:51.037Z,99968.38
2022-07-27T08:11:39.042Z,99976.28
2022-07-27T08:14:27.333Z,99972.94
2022-07-27T08:17:17.020Z,99967.47
2022-07-27T08:20:05.851Z,99963.38
2022-07-27T08:22:54.965Z,99962.44
2022-07-27T08:25:44.421Z,99969.00
2022-07-27T08:28:36.819Z,99962.28
2022-07-27T08:31:51.401Z,99970.09
2022-07-27T08:34:33.535Z,99966.06
2022-07-27T08:37:21.564Z,99961.66
2022-07-27T08:43:25.267Z,99962.16
2022-07-27T08:46:13.892Z,99955.13
2022-07-27T08:49:03.143Z,99957.94
2022-07-27T08:51:51.734Z,99959.97
2022-07-27T08:54:41.309Z,99963.25
2022-07-27T08:57:29.838Z,99959.38
2022-07-27T09:00:20.798Z,99957.44
2022-07-27T09:03:17.904Z,99959.84
2022-07-27T09:06:07.363Z,99961.84
2022-07-27T09:09:00.297Z,99967.28
2022-07-27T09:12:08.114Z,99966.34
2022-07-27T09:15:07.192Z,99970.41
2022-07-27T09:17:56.515Z,99961.66
2022-07-27T09:20:44.515Z,99968.78
2022-07-27T09:23:32.579Z,99967.88
2022-07-27T09:26:38.298Z,99960.53
2022-07-27T09:29:35.343Z,99967.50
2022-07-27T09:32:23.340Z,99954.25
2022-07-27T09:35:20.803Z,99956.06
2022-07-27T09:38:20.019Z,99946.22
2022-07-27T09:41:08.293Z,99959.56
2022-07-27T09:47:22.758Z,99962.84
2022-07-27T09:50:19.691Z,99953.06
2022-07-27T09:53:41.749Z,99951.41
2022-07-27T09:56:28.363Z,99960.16
2022-07-27T09:59:19.964Z,99957.69
2022-07-27T10:02:08.651Z,99935.63
2022-07-27T10:04:56.957Z,99963.69
2022-07-27T10:07:46.377Z,99962.13
2022-07-27T10:10:35.194Z,99964.31
2022-07-27T10:13:23.963Z,99963.41
2022-07-27T10:16:15.043Z,99966.34
2022-07-27T10:19:11.769Z,99957.94
2022-07-27T10:21:59.756Z,99970.59
2022-07-27T10:24:59.732Z,99964.63
2022-07-27T10:27:49.305Z,99966.47
2022-07-27T10:30:37.405Z,99940.53
2022-07-27T10:33:43.685Z,99970.78
2022-07-27T10:36:51.943Z,99967.22
2022-07-27T10:39:43.075Z,99965.72
2022-07-27T10:42:32.556Z,99968.41
2022-07-27T10:45:20.570Z,99975.78
2022-07-27T10:48:08.682Z,99966.41
2022-07-27T10:50:56.721Z,99969.41
2022-07-27T10:56:55.830Z,99970.50
2022-07-27T11:00:07.359Z,99964.03
2022-07-27T11:02:57.228Z,99968.56
2022-07-27T11:06:21.719Z,99970.50
2022-07-27T11:09:52.529Z,99963.59
2022-07-27T11:12:13.679Z,99963.53
2022-07-27T11:15:04.678Z,99967.78
2022-07-27T11:18:00.425Z,99963.59
2022-07-27T11:20:49.910Z,99954.38
2022-07-27T11:23:50.956Z,99956.00
2022-07-27T11:26:42.213Z,99942.28
2022-07-27T11:29:35.264Z,99959.72
2022-07-27T11:32:35.947Z,99963.28
2022-07-27T11:35:24.740Z,99941.09
2022-07-27T11:38:12.845Z,99959.53
2022-07-27T11:41:13.735Z,99953.50
2022-07-27T11:44:08.929Z,99963.09
2022-07-27T11:47:01.764Z,99967.84
2022-07-27T11:49:52.040Z,99951.25
2022-07-27T11:52:40.128Z,99955.97
2022-07-27T11:55:28.126Z,99954.16
2022-07-27T11:58:18.418Z,99947.44
2022-07-27T12:01:06.450Z,99956.78
2022-07-27T12:04:07.089Z,99935.53
2022-07-27T12:07:06.563Z,99951.72
2022-07-27T12:09:56.670Z,99941.09
2022-07-27T12:12:50.142Z,99937.41
2022-07-27T12:15:46.806Z,99935.13
2022-07-27T12:18:42.420Z,99934.16
2022-07-27T12:21:31.742Z,99934.13
2022-07-27T12:24:32.829Z,99934.31
2022-07-27T12:27:21.867Z,99935.88
2022-07-27T12:30:13.040Z,99941.47
2022-07-27T12:33:02.080Z,99945.44
2022-07-27T12:35:50.111Z,99934.66
2022-07-27T12:38:39.627Z,99927.88
2022-07-27T12:41:31.633Z,99921.97
2022-07-27T12:44:19.579Z,99932.72
2022-07-27T12:47:27.922Z,99925.38
2022-07-27T12:50:18.568Z,99937.22
2022-07-27T12:53:07.377Z,99922.72
2022-07-27T12:55:56.867Z,99919.06
2022-07-27T12:59:00.693Z,99913.50
2022-07-27T13:01:51.193Z,99913.78
2022-07-27T13:04:40.105Z,99910.22
2022-07-27T13:07:28.071Z,99906.53
2022-07-27T13:10:18.747Z,99902.84
2022-07-27T13:13:07.835Z,99901.25
2022-07-27T13:15:57.298Z,99900.31
2022-07-27T13:18:45.293Z,99888.66
2022-07-27T13:21:33.309Z,99893.38
2022-07-27T13:24:21.443Z,99884.84
2022-07-27T13:27:09.439Z,99882.81
2022-07-27T13:29:57.945Z,99880.84
2022-07-27T13:32:47.914Z,99868.00
2022-07-27T13:35:36.271Z,99867.03
2022-07-27T13:38:24.482Z,99877.88
2022-07-27T13:41:12.859Z,99877.91
2022-07-27T13:44:00.905Z,99885.38
2022-07-27T13:46:49.765Z,99872.06
2022-07-27T13:49:39.101Z,99876.63
2022-07-27T13:52:27.113Z,99877.44
2022-07-27T13:55:15.606Z,99859.00
2022-07-27T13:58:03.710Z,99874.00
2022-07-27T14:00:51.878Z,99876.41
2022-07-27T14:03:40.706Z,99869.47
2022-07-27T14:06:30.332Z,99866.28
2022-07-27T14:09:18.778Z,99863.03
2022-07-27T14:12:07.070Z,99861.03
2022-07-27T14:14:55.221Z,99858.44
2022-07-27T14:17:43.354Z,99860.13
2022-07-27T14:20:31.429Z,99859.50
2022-07-27T14:23:20.929Z,99856.94
2022-07-27T14:26:10.707Z,99851.53
2022-07-27T14:28:58.710Z,99857.03
2022-07-27T14:31:48.342Z,99857.63
2022-07-27T14:34:37.531Z,99851.75
2022-07-27T14:37:25.610Z,99861.53
2022-07-27T14:40:15.627Z,99860.09
2022-07-27T14:43:03.774Z,99865.31
2022-07-27T14:45:51.970Z,99866.19
2022-07-27T14:49:05.093Z,99872.41
2022-07-27T14:51:47.998Z,99865.34
2022-07-27T14:54:37.786Z,99868.25
2022-07-27T14:57:27.537Z,99879.41
2022-07-27T15:00:17.239Z,99859.59
2022-07-27T15:03:06.031Z,99859.59
2022-07-27T15:05:54.098Z,99868.25
2022-07-27T15:08:42.212Z,99866.16
2022-07-27T15:11:30.216Z,99865.56
2022-07-27T15:14:19.621Z,99876.91
2022-07-27T15:17:07.732Z,99875.81
2022-07-27T15:19:55.727Z,99872.13
2022-07-27T15:22:43.768Z,99867.97
2022-07-27T15:25:31.797Z,99861.78
2022-07-27T15:28:19.774Z,99836.44
2022-07-27T15:31:09.598Z,99855.41
2022-07-27T15:33:57.858Z,99852.59
2022-07-27T15:36:51.639Z,99849.91
2022-07-27T15:39:41.272Z,99839.13
2022-07-27T15:42:29.251Z,99843.63
2022-07-27T15:45:17.444Z,99832.63
2022-07-27T15:48:08.537Z,99831.84
2022-07-27T15:50:58.778Z,99819.72
2022-07-27T15:53:46.976Z,99827.03
2022-07-27T15:56:34.930Z,99828.63
2022-07-27T15:59:22.955Z,99821.19
2022-07-27T16:02:11.739Z,99813.97
2022-07-27T16:05:02.487Z,99815.28
2022-07-27T16:07:50.721Z,99817.16
2022-07-27T16:10:39.844Z,99814.00
2022-07-27T16:13:27.832Z,99821.03
2022-07-27T16:16:25.859Z,99818.03
2022-07-27T16:19:14.329Z,99812.47
2022-07-27T16:22:04.528Z,99816.94
2022-07-27T16:24:52.552Z,99804.00
2022-07-27T16:27:40.594Z,99804.59
2022-07-27T16:30:33.992Z,99802.97
2022-07-27T16:33:26.121Z,99811.19
2022-07-27T16:36:14.206Z,99793.44
2022-07-27T16:39:04.766Z,99787.44
2022-07-27T16:41:53.064Z,99809.75
2022-07-27T16:44:41.459Z,99796.78
2022-07-27T16:47:29.711Z,99793.09
2022-07-27T16:50:18.451Z,99794.91
2022-07-27T16:53:07.111Z,99812.13
2022-07-27T16:55:57.890Z,99797.31
2022-07-27T16:58:45.900Z,99804.47
2022-07-27T17:01:34.050Z,99802.34
2022-07-27T17:04:22.830Z,99816.31
2022-07-27T17:07:12.701Z,99810.19
2022-07-27T17:10:00.921Z,99808.31
2022-07-27T17:12:52.931Z,99809.78
2022-07-27T17:15:42.062Z,99814.78
2022-07-27T17:18:32.237Z,99746.53
2022-07-27T17:21:23.679Z,99806.81
2022-07-27T17:24:11.714Z,99807.75
2022-07-27T17:26:59.730Z,99803.31
2022-07-27T17:29:49.181Z,99805.72
2022-07-27T17:32:37.821Z,99807.09
2022-07-27T17:35:25.850Z,99810.16
2022-07-27T17:38:15.724Z,99814.22
2022-07-27T17:41:05.143Z,99805.75
2022-07-27T17:43:53.800Z,99805.72
2022-07-27T17:46:43.250Z,99806.59
2022-07-27T17:49:31.591Z,99799.41
2022-07-27T17:52:19.673Z,99804.88
2022-07-27T17:55:09.199Z,99726.13
2022-07-27T17:57:57.184Z,99805.44
2022-07-27T18:00:45.161Z,99816.34
2022-07-27T18:03:34.796Z,99809.34
2022-07-27T18:06:22.854Z,99811.22
2022-07-27T18:09:11.537Z,99810.88
2022-07-27T18:11:59.803Z,99798.25
2022-07-27T18:15:02.521Z,99802.44
2022-07-27T18:17:50.536Z,99807.69
2022-07-27T18:20:40.036Z,99814.66
2022-07-27T18:23:28.263Z,99813.47
2022-07-27T18:26:16.271Z,99826.03
2022-07-27T18:29:04.356Z,99833.84
2022-07-27T18:31:52.372Z,99746.75
2022-07-27T18:34:40.772Z,99830.78
2022-07-27T18:37:30.143Z,99837.66
2022-07-27T18:40:18.348Z,99833.72
2022-07-27T18:43:07.750Z,99839.91
2022-07-27T18:45:56.123Z,99842.91
2022-07-27T18:48:44.320Z,99854.06
2022-07-27T18:51:32.566Z,99855.22
2022-07-27T18:54:22.925Z,99856.88
2022-07-27T18:57:11.108Z,99864.25
2022-07-27T18:59:59.106Z,99856.09
2022-07-27T19:02:47.172Z,99861.13
2022-07-27T19:05:41.293Z,99877.16
2022-07-27T19:08:29.835Z,99869.97
2022-07-27T19:11:19.488Z,99865.13
2022-07-27T19:14:07.948Z,99878.06
2022-07-27T19:16:56.500Z,99878.00
2022-07-27T19:19:44.596Z,99877.84
2022-07-27T19:22:32.587Z,99883.69
2022-07-27T19:25:21.895Z,99888.97
2022-07-27T19:28:11.315Z,99890.94
2022-07-27T19:30:59.409Z,99897.66
2022-07-27T19:33:47.419Z,99896.44
2022-07-27T19:36:35.410Z,99904.94
2022-07-27T19:39:23.437Z,99899.69
2022-07-27T19:42:11.446Z,99901.84
2022-07-27T19:45:01.031Z,99864.28
2022-07-27T19:47:48.969Z,99906.00
2022-07-27T19:50:37.291Z,99910.09
2022-07-27T19:53:25.416Z,99907.03
2022-07-27T19:56:13.373Z,99911.53
2022-07-27T19:59:01.384Z,99908.03
2022-07-27T20:01:50.788Z,99901.00
2022-07-27T20:04:41.439Z,99901.88
2022-07-27T20:07:29.550Z,99915.00
2022-07-27T20:10:17.655Z,99885.81
2022-07-27T20:13:05.785Z,99914.56
2022-07-27T20:15:53.818Z,99929.09
2022-07-27T20:18:43.192Z,99915.06
2022-07-27T20:21:33.542Z,99909.03
2022-07-27T20:24:21.598Z,99910.22
2022-07-27T20:27:09.599Z,99909.28
2022-07-27T20:30:00.097Z,99894.00
2022-07-27T20:32:49.053Z,99902.50
2022-07-27T20:35:38.438Z,99901.03
2022-07-27T20:38:26.428Z,99899.53
2022-07-27T20:41:14.491Z,99897.00
2022-07-27T20:44:02.729Z,99903.72
2022-07-27T20:46:50.666Z,99909.28
2022-07-27T20:49:39.022Z,99896.59
2022-07-27T20:52:28.369Z,99904.22
2022-07-27T20:55:16.377Z,99802.19
2022-07-27T20:58:04.393Z,99894.75
2022-07-27T21:00:52.718Z,99895.09
2022-07-27T21:03:40.777Z,99895.66
2022-07-27T21:06:28.794Z,99896.34
2022-07-27T21:09:18.171Z,99897.22
2022-07-27T21:12:07.006Z,99890.63
2022-07-27T21:14:55.160Z,99880.72
2022-07-27T21:17:43.702Z,99890.06
2022-07-27T21:20:31.689Z,99896.13
2022-07-27T21:23:37.386Z,99887.63
2022-07-27T21:26:26.747Z,99891.44
2022-07-27T21:29:15.241Z,99892.75
2022-07-27T21:32:03.517Z,99890.75
2022-07-27T21:34:51.552Z,99886.66
2022-07-27T21:37:39.544Z,99888.25
2022-07-27T21:40:27.504Z,99895.84
2022-07-27T21:43:16.844Z,99892.09
2022-07-27T21:46:04.907Z,99890.09
2022-07-27T21:48:53.170Z,99887.47
2022-07-27T21:51:41.310Z,99893.03
2022-07-27T21:54:29.320Z,99884.75
2022-07-27T21:57:17.542Z,99893.03
2022-07-27T22:00:08.743Z,99886.25
2022-07-27T22:02:57.557Z,99891.47
2022-07-27T22:05:45.587Z,99886.06
2022-07-27T22:08:34.038Z,99795.97
2022-07-27T22:11:22.058Z,99884.41
2022-07-27T22:14:10.346Z,99883.81
2022-07-27T22:17:03.062Z,99888.69
2022-07-27T22:19:51.171Z,99893.72
2022-07-27T22:22:39.395Z,99892.34
2022-07-27T22:25:27.440Z,99888.88
2022-07-27T22:28:15.721Z,99894.31
2022-07-27T22:31:21.738Z,99900.09
2022-07-27T22:34:12.809Z,99895.47
2022-07-27T22:37:01.079Z,99899.56
2022-07-27T22:39:49.032Z,99909.13
2022-07-27T22:42:37.046Z,99903.97
2022-07-27T22:45:25.381Z,99898.75
2022-07-27T22:48:13.346Z,99909.19
2022-07-27T22:51:02.961Z,99902.00
2022-07-27T22:53:50.973Z,99903.72
2022-07-27T22:56:38.944Z,99910.06
2022-07-27T22:59:27.392Z,99897.34
2022-07-27T23:02:15.374Z,99902.06
2022-07-27T23:05:03.424Z,99899.78
2022-07-27T23:07:52.833Z,99908.25
2022-07-27T23:10:46.829Z,99905.19
2022-07-27T23:13:34.920Z,99911.16
2022-07-27T23:16:23.080Z,99912.69
2022-07-27T23:19:11.651Z,99905.59
2022-07-27T23:22:01.451Z,99899.44
2022-07-27T23:24:51.172Z,99905.00
2022-07-27T23:27:39.301Z,99892.72
2022-07-27T23:30:27.561Z,99873.69
2022-07-27T23:33:15.564Z,99904.00
2022-07-27T23:36:06.007Z,99891.66
2022-07-27T23:38:54.018Z,99886.59
2022-07-27T23:41:47.899Z,99881.44
2022-07-27T23:44:37.703Z,99881.72
2022-07-27T23:47:25.681Z,99883.75
2022-07-27T23:50:13.727Z,99885.22
2022-07-27T23:53:03.724Z,99876.44
2022-07-27T23:55:54.211Z,99882.16
2022-07-27T23:58:43.581Z,99880.25
